Meadow Lake, Canada
Current Conditions -  °F | °C
As of 2:00 PM on Sunday 25 Jan 2015 (Local Time) from CYLJ Reporting Station
Scattered Clouds Scattered Clouds  
Wind Chill: 35°   Ceiling: Unl
Heat Index: 45°   Visibility: 15mi
Dew Point: 30°   Wind: 28mph
Humidity: 57%   Direction: 290°WNW
Pressure: 29.52"   Gusts: 33mph
Location:  54.13°N, 108.45°W
Report Text: CYLJ 252000Z 29024G29KT 15SM FEW130 SCT220 07/M01 A2952 RMK AC2CI1 SLP018
Loading
Personal Weather Stations






























Interactive Weather Map New forecast layout! Learn more

10-Day Weather Forecast

Advertisements
Track Severe Weather on mobile